Time;durP1;ratioP1;P1;durP2;ratioP2;P2;SDS_P1;SDS_P2;PMS_P1;PMS_P2;Temp;Humidity;BMP_temperature;BMP_pressure;BME280_temperature;BME280_humidity;BME280_pressure;Samples;Min_cycle;Max_cycle;Signal;HPM_P1;HPM_P2
2024/03/08 00:00:18;;;;;;;126.12;57.95;;;;;;;-3.35;72.66;101185.27;1793676;80;25663;-61
2024/03/08 00:02:50;;;;;;;121.13;56.80;;;;;;;-3.40;72.77;101189.32;1793593;80;25708;-61
2024/03/08 00:05:18;;;;;;;121.82;57.83;;;;;;;-3.44;72.94;101184.61;1793967;80;25420;-61
2024/03/08 00:07:44;;;;;;;128.10;58.68;;;;;;;-3.48;72.94;101184.17;1793787;80;27872;-63
2024/03/08 00:10:13;;;;;;;123.50;58.80;;;;;;;-3.51;73.22;101189.05;1793768;80;25686;-63
2024/03/08 00:12:44;;;;;;;126.40;59.13;;;;;;;-3.55;73.04;101183.84;1794063;80;25546;-63
2024/03/08 00:15:15;;;;;;;127.55;59.45;;;;;;;-3.59;73.30;101186.05;1793868;80;25476;-63
2024/03/08 00:17:44;;;;;;;126.12;56.60;;;;;;;-3.63;73.34;101174.21;1793909;80;25546;-61
2024/03/08 00:20:13;;;;;;;113.25;54.00;;;;;;;-3.64;73.28;101179.20;1794004;80;26721;-62
2024/03/08 00:22:41;;;;;;;110.88;53.75;;;;;;;-3.66;73.80;101175.91;1793835;80;25615;-63
2024/03/08 00:25:09;;;;;;;128.02;56.35;;;;;;;-3.66;74.19;101173.27;1793805;80;25541;-62
2024/03/08 00:27:38;;;;;;;121.93;56.43;;;;;;;-3.66;73.97;101183.36;1794028;80;25393;-62
2024/03/08 00:30:09;;;;;;;123.90;55.53;;;;;;;-3.69;73.90;101171.03;1794032;80;25336;-62
2024/03/08 00:32:36;;;;;;;130.80;57.83;;;;;;;-3.72;73.79;101173.55;1793306;80;27310;-62
2024/03/08 00:35:07;;;;;;;129.12;59.13;;;;;;;-3.74;74.07;101170.80;1793261;80;25622;-62
2024/03/08 00:37:34;;;;;;;118.40;55.40;;;;;;;-3.75;74.37;101169.95;1793307;80;25452;-62
2024/03/08 00:40:05;;;;;;;117.67;55.88;;;;;;;-3.77;73.81;101177.27;1793215;80;25722;-61
2024/03/08 00:42:34;;;;;;;117.42;54.67;;;;;;;-3.82;73.80;101166.45;1793261;79;25415;-62
2024/03/08 00:45:03;;;;;;;127.00;57.75;;;;;;;-3.86;73.89;101174.47;1793200;80;27686;-62
2024/03/08 00:47:29;;;;;;;127.62;58.68;;;;;;;-3.89;74.24;101175.66;1793307;80;33205;-62
2024/03/08 00:49:56;;;;;;;115.50;57.48;;;;;;;-3.92;74.34;101169.42;1793220;80;25527;-62
2024/03/08 00:52:25;;;;;;;114.25;54.58;;;;;;;-3.92;74.24;101168.62;1793208;80;25596;-62
2024/03/08 00:54:51;;;;;;;116.82;56.63;;;;;;;-3.93;74.74;101171.77;1793264;80;25642;-62
2024/03/08 00:57:17;;;;;;;130.72;59.88;;;;;;;-3.94;74.69;101166.16;1793203;80;27694;-62
2024/03/08 00:59:43;;;;;;;141.15;62.35;;;;;;;-3.93;74.84;101167.80;1793152;80;25967;-62
2024/03/08 01:02:12;;;;;;;135.15;60.48;;;;;;;-3.95;74.91;101161.39;1793247;80;25585;-62
2024/03/08 01:04:38;;;;;;;132.57;63.70;;;;;;;-3.97;74.90;101163.41;1793448;80;25617;-61
2024/03/08 01:07:05;;;;;;;146.10;63.63;;;;;;;-3.97;75.04;101163.89;1793225;80;25436;-61
2024/03/08 01:09:33;;;;;;;129.85;58.55;;;;;;;-3.99;75.08;101163.27;1793202;80;28558;-61
2024/03/08 01:11:59;;;;;;;142.35;62.45;;;;;;;-4.00;75.07;101162.95;1793142;80;25628;-61
2024/03/08 01:14:28;;;;;;;146.57;64.90;;;;;;;-4.02;75.20;101167.61;1793217;80;25543;-61
2024/03/08 01:16:55;;;;;;;139.22;63.00;;;;;;;-4.04;75.46;101164.35;1793236;80;25626;-62
2024/03/08 01:19:23;;;;;;;129.87;59.80;;;;;;;-4.06;75.51;101157.12;1793286;80;25369;-61
2024/03/08 01:21:50;;;;;;;126.95;58.70;;;;;;;-4.05;75.47;101162.70;1793259;80;27340;-63
2024/03/08 01:24:19;;;;;;;122.50;60.58;;;;;;;-4.08;75.67;101157.83;1793110;80;25656;-62
2024/03/08 01:26:46;;;;;;;124.05;59.38;;;;;;;-4.09;75.19;101151.70;1764642;80;25608;-64
2024/03/08 01:29:13;;;;;;;106.43;44.73;;;;;;;-4.09;75.55;101154.86;1793181;80;26294;-62
2024/03/08 01:31:39;;;;;;;105.60;53.75;;;;;;;-4.13;75.72;101150.45;1793387;80;25435;-63
2024/03/08 01:34:05;;;;;;;110.05;52.50;;;;;;;-4.11;75.48;101146.31;1793778;80;27671;-62
2024/03/08 01:36:32;;;;;;;123.10;54.98;;;;;;;-4.11;75.68;101143.66;1793629;80;25389;-61
2024/03/08 01:38:58;;;;;;;112.83;52.98;;;;;;;-4.13;75.67;101142.02;1793763;80;25661;-62
2024/03/08 01:41:24;;;;;;;116.35;55.12;;;;;;;-4.13;75.57;101146.50;1793722;80;25441;-63
2024/03/08 01:43:51;;;;;;;110.32;54.38;;;;;;;-4.15;75.75;101146.69;1793778;80;25377;-63
2024/03/08 01:46:21;;;;;;;115.85;53.00;;;;;;;-4.17;75.50;101144.74;1793767;80;27215;-63
2024/03/08 01:48:54;;;;;;;119.08;55.05;;;;;;;-4.21;75.36;101146.11;1793703;80;25744;-64
2024/03/08 01:51:20;;;;;;;115.20;54.38;;;;;;;-4.22;75.71;101147.14;1792687;80;25585;-63
2024/03/08 01:53:49;;;;;;;114.55;54.35;;;;;;;-4.23;75.70;101148.64;1793735;80;25598;-63
2024/03/08 01:56:18;;;;;;;124.15;56.80;;;;;;;-4.25;75.97;101145.38;1793936;80;25448;-63
2024/03/08 01:58:44;;;;;;;129.55;57.17;;;;;;;-4.27;75.81;101148.21;1793920;80;27330;-63
2024/03/08 02:01:16;;;;;;;116.47;56.10;;;;;;;-4.30;75.43;101139.85;1793652;80;25483;-63
2024/03/08 02:03:44;;;;;;;116.67;57.05;;;;;;;-4.35;75.41;101139.89;1793813;80;25451;-63
2024/03/08 02:06:16;;;;;;;132.67;58.98;;;;;;;-4.40;75.42;101137.00;1793716;80;25641;-63
2024/03/08 02:08:45;;;;;;;133.47;60.17;;;;;;;-4.41;75.79;101131.91;1793771;80;25462;-62
2024/03/08 02:11:14;;;;;;;128.47;57.83;;;;;;;-4.41;75.97;101131.91;1793767;80;27299;-63
2024/03/08 02:13:40;;;;;;;122.15;58.87;;;;;;;-4.42;75.81;101129.78;1793762;80;25692;-63
2024/03/08 02:16:09;;;;;;;136.43;61.18;;;;;;;-4.45;75.22;101122.23;1793844;80;25692;-63
2024/03/08 02:18:39;;;;;;;134.43;63.97;;;;;;;-4.46;74.98;101126.38;1793969;80;26258;-63
2024/03/08 02:21:08;;;;;;;137.22;62.40;;;;;;;-4.47;75.49;101125.57;1793910;80;25584;-63
2024/03/08 02:23:37;;;;;;;138.70;63.78;;;;;;;-4.47;75.51;101125.57;1793932;80;27669;-62
2024/03/08 02:26:04;;;;;;;138.22;64.37;;;;;;;-4.48;75.64;101124.44;1793803;80;26071;-62
2024/03/08 02:28:33;;;;;;;134.37;60.70;;;;;;;-4.48;75.60;101127.08;1793730;80;25559;-62
2024/03/08 02:31:00;;;;;;;129.55;59.15;;;;;;;-4.48;75.72;101128.40;1793591;80;25897;-61
2024/03/08 02:33:30;;;;;;;128.95;59.93;;;;;;;-4.52;75.41;101123.48;1793893;80;25531;-62
2024/03/08 02:35:56;;;;;;;129.53;59.33;;;;;;;-4.52;76.05;101126.64;1793770;80;27667;-62
2024/03/08 02:38:24;;;;;;;122.47;56.65;;;;;;;-4.53;76.12;101121.87;1793651;80;25623;-62
2024/03/08 02:40:54;;;;;;;128.78;57.83;;;;;;;-4.55;75.97;101121.73;1793721;80;25439;-63
2024/03/08 02:43:24;;;;;;;121.13;56.95;;;;;;;-4.56;76.12;101124.88;1794057;80;25650;-63
2024/03/08 02:45:55;;;;;;;124.80;55.05;;;;;;;-4.57;75.71;101125.06;1793786;80;25582;-63
2024/03/08 02:48:22;;;;;;;120.55;55.98;;;;;;;-4.61;75.56;101120.67;1793909;80;27532;-62
2024/03/08 02:50:53;;;;;;;122.42;56.48;;;;;;;-4.63;76.02;101125.33;1793685;80;25621;-62
2024/03/08 02:53:19;;;;;;;120.85;56.15;;;;;;;-4.66;76.11;101127.02;1793762;80;25430;-62
2024/03/08 02:55:48;;;;;;;117.03;55.88;;;;;;;-4.71;75.63;101119.65;1793657;80;25952;-61
2024/03/08 02:58:14;;;;;;;114.25;52.95;;;;;;;-4.74;76.10;101117.38;1793872;80;25378;-61
2024/03/08 03:00:44;;;;;;;118.30;56.48;;;;;;;-4.77;76.01;101122.22;1793867;80;28207;-61
2024/03/08 03:03:11;;;;;;;116.88;53.25;;;;;;;-4.80;75.95;101118.63;1793846;80;25584;-61
2024/03/08 03:05:41;;;;;;;122.55;56.02;;;;;;;-4.83;75.66;101121.16;1793896;80;25446;-62
2024/03/08 03:08:11;;;;;;;112.40;53.10;;;;;;;-4.88;75.57;101121.70;1793139;80;25385;-62
2024/03/08 03:10:39;;;;;;;115.55;52.35;;;;;;;-4.92;75.92;101115.17;1793965;80;25633;-62
2024/03/08 03:13:05;;;;;;;106.85;51.45;;;;;;;-4.95;75.69;101118.19;1793865;80;28044;-62
2024/03/08 03:15:31;;;;;;;110.12;53.38;;;;;;;-4.96;75.86;101114.41;1793810;80;25592;-62
2024/03/08 03:17:57;;;;;;;120.80;54.80;;;;;;;-5.00;75.75;101119.24;1793850;80;25589;-62
2024/03/08 03:20:26;;;;;;;112.97;53.10;;;;;;;-5.01;76.11;101121.55;1793821;80;25890;-63
2024/03/08 03:22:54;;;;;;;112.77;51.88;;;;;;;-5.02;76.31;101120.41;1793277;79;25637;-62
2024/03/08 03:25:28;;;;;;;113.40;54.27;;;;;;;-5.01;76.39;101118.11;1794127;80;27204;-63
2024/03/08 03:27:56;;;;;;;108.92;52.80;;;;;;;-5.01;76.42;101119.42;1792841;79;25501;-63
2024/03/08 03:30:26;;;;;;;120.28;53.10;;;;;;;-5.03;76.30;101121.44;1793259;80;25613;-62
2024/03/08 03:32:56;;;;;;;115.57;53.68;;;;;;;-5.04;76.40;101114.51;1793347;80;26245;-63
2024/03/08 03:35:22;;;;;;;110.00;52.33;;;;;;;-5.06;76.44;101112.05;1793472;80;25425;-62
2024/03/08 03:38:06;;;;;;;118.80;52.67;;;;;;;-5.06;76.62;101108.09;1793460;80;27377;-62
2024/03/08 03:40:41;;;;;;;114.97;53.98;;;;;;;-5.06;76.68;101113.38;1793416;80;25538;-62
2024/03/08 03:43:10;;;;;;;114.80;54.55;;;;;;;-5.04;76.86;101111.87;1793340;80;25422;-63
2024/03/08 03:45:36;;;;;;;;;;;;;;;-5.05;77.07;101111.58;1795986;80;25468;-62
2024/03/08 03:48:08;;;;;;;105.20;49.13;;;;;;;-5.05;76.87;101109.74;1793313;80;25567;-63
2024/03/08 03:50:37;;;;;;;120.80;53.45;;;;;;;-5.08;76.74;101107.47;1793335;80;27339;-62
2024/03/08 03:53:07;;;;;;;114.10;51.73;;;;;;;-5.09;76.57;101103.19;1793217;80;25536;-64
2024/03/08 03:55:33;;;;;;;117.17;55.10;;;;;;;-5.12;76.58;101099.62;1792531;80;25414;-63
2024/03/08 03:58:00;;;;;;;121.77;54.55;;;;;;;-5.13;76.77;101111.17;1793259;80;25555;-63
2024/03/08 04:00:27;;;;;;;125.33;55.35;;;;;;;-5.13;76.61;101101.42;1793434;80;25623;-62
2024/03/08 04:02:58;;;;;;;115.05;52.95;;;;;;;-5.12;76.96;101104.39;1793348;80;28271;-63
2024/03/08 04:05:24;;;;;;;118.45;54.45;;;;;;;-5.11;76.94;101103.88;1792332;80;25986;-63
2024/03/08 04:07:50;;;;;;;125.97;56.88;;;;;;;-5.12;76.98;101102.27;1793267;80;25603;-62
2024/03/08 04:10:16;;;;;;;124.87;58.58;;;;;;;-5.11;76.87;101101.24;1793211;80;25578;-63
2024/03/08 04:12:47;;;;;;;123.28;59.25;;;;;;;-5.13;76.69;101094.02;1793352;80;25178;-62
2024/03/08 04:15:15;;;;;;;122.47;60.05;;;;;;;-5.14;76.46;101097.65;1793314;80;28082;-62
2024/03/08 04:17:45;;;;;;;137.25;61.13;;;;;;;-5.19;76.51;101092.95;1793167;80;25693;-62
2024/03/08 04:20:14;;;;;;;128.45;58.83;;;;;;;-5.22;76.41;101091.99;1793314;80;25386;-62
2024/03/08 04:22:48;;;;;;;124.70;56.65;;;;;;;-5.25;76.95;101089.21;1793241;80;25656;-63
2024/03/08 04:25:13;;;;;;;125.22;58.48;;;;;;;-5.21;77.27;101090.16;1793248;79;25401;-62
2024/03/08 04:27:44;;;;;;;121.95;55.65;;;;;;;-5.23;76.89;101090.86;1793268;80;27700;-63
2024/03/08 04:30:14;;;;;;;129.63;58.98;;;;;;;-5.25;77.32;101096.31;1793332;80;25586;-63
2024/03/08 04:32:41;;;;;;;;;;;;;;;-5.26;76.88;101094.70;1795825;80;25589;-63
2024/03/08 04:35:12;;;;;;;121.25;54.80;;;;;;;-5.30;76.89;101094.22;1793340;80;25918;-63
2024/03/08 04:37:41;;;;;;;130.80;57.35;;;;;;;-5.30;77.11;101091.58;1793338;80;25649;-64
2024/03/08 04:40:11;;;;;;;127.62;59.75;;;;;;;-5.31;76.99;101096.56;1793472;80;27913;-62
2024/03/08 04:42:40;;;;;;;121.70;56.50;;;;;;;-5.31;77.26;101093.92;1793239;80;25546;-61
2024/03/08 04:45:13;;;;;;;125.78;55.70;;;;;;;-5.30;77.42;101098.69;1793298;80;25417;-61
2024/03/08 04:47:43;;;;;;;122.13;57.43;;;;;;;-5.30;77.04;101093.41;1765203;80;25574;-61
2024/03/08 04:50:12;;;;;;;117.72;55.03;;;;;;;-5.33;76.99;101091.98;1793387;80;25605;-62
2024/03/08 04:52:38;;;;;;;124.82;55.92;;;;;;;-5.34;77.11;101096.92;1793390;80;28337;-61
2024/03/08 04:55:09;;;;;;;129.90;56.83;;;;;;;-5.34;76.95;101092.16;1793161;80;25374;-61
2024/03/08 04:57:35;;;;;;;122.62;57.00;;;;;;;-5.35;76.83;101093.14;1793275;80;25582;-61
2024/03/08 05:00:10;;;;;;;135.78;58.75;;;;;;;-5.38;76.97;101086.44;1793221;80;25549;-61
2024/03/08 05:02:34;;;;;;;126.47;57.55;;;;;;;-5.38;76.88;101089.08;1792041;80;25400;-63
2024/03/08 05:05:00;;;;;;;121.70;57.30;;;;;;;-5.40;76.73;101089.73;1793295;80;27325;-62
2024/03/08 05:07:28;;;;;;;130.10;59.98;;;;;;;-5.40;76.89;101091.05;1793132;80;25437;-62
2024/03/08 05:09:57;;;;;;;131.27;58.08;;;;;;;-5.40;77.39;101093.69;1793195;80;25377;-62
2024/03/08 05:12:23;;;;;;;125.85;58.58;;;;;;;-5.37;77.54;101088.05;1793326;80;25568;-62
2024/03/08 05:14:52;;;;;;;128.38;57.88;;;;;;;-5.36;77.63;101091.02;1793236;80;25397;-62
2024/03/08 05:17:18;;;;;;;132.80;58.17;;;;;;;-5.35;77.38;101094.47;1793230;80;27217;-62
2024/03/08 05:19:44;;;;;;;122.10;55.78;;;;;;;-5.38;77.18;101086.44;1793105;80;25531;-61
2024/03/08 05:22:13;;;;;;;121.82;57.08;;;;;;;-5.35;77.58;101090.51;1793174;80;25543;-61
2024/03/08 05:24:39;;;;;;;132.07;59.77;;;;;;;-5.35;77.31;101098.42;1793294;80;25669;-62
2024/03/08 05:27:07;;;;;;;124.62;58.17;;;;;;;-5.36;77.19;101097.61;1792613;80;25472;-63
2024/03/08 05:29:33;;;;;;;121.95;56.48;;;;;;;-5.36;77.21;101096.77;1793159;80;28011;-62
2024/03/08 05:32:00;;;;;;;117.45;55.28;;;;;;;-5.37;77.33;101090.69;1793068;79;25626;-62
2024/03/08 05:34:30;;;;;;;122.25;56.48;;;;;;;-5.34;77.47;101095.61;1793846;80;25592;-62
2024/03/08 05:37:00;;;;;;;125.18;57.93;;;;;;;-5.32;77.47;101092.78;1793774;80;26006;-62
2024/03/08 05:39:26;;;;;;;125.58;57.62;;;;;;;-5.30;77.84;101097.37;1793819;80;25573;-61
2024/03/08 05:41:55;;;;;;;122.07;56.13;;;;;;;-5.27;77.85;101086.45;1793733;80;27659;-61
2024/03/08 05:44:22;;;;;;;122.60;55.10;;;;;;;-5.21;77.94;101092.80;1793661;80;25535;-62
2024/03/08 05:46:54;;;;;;;122.98;56.15;;;;;;;-5.16;77.84;101089.11;1793764;80;25636;-62
2024/03/08 05:49:24;;;;;;;127.22;58.73;;;;;;;-5.09;78.08;101092.63;1793801;80;25582;-61
2024/03/08 05:51:54;;;;;;;134.32;60.48;;;;;;;-5.04;78.24;101094.21;1793256;80;25637;-62
2024/03/08 05:54:24;;;;;;;;;;;;;;;-4.96;78.51;101089.34;1796439;80;27705;-61
2024/03/08 05:56:52;;;;;;;126.87;56.30;;;;;;;-4.85;78.79;101078.78;1793702;80;25603;-61
2024/03/08 05:59:21;;;;;;;137.37;60.98;;;;;;;-4.76;79.01;101081.12;1793797;80;25596;-62
2024/03/08 06:01:49;;;;;;;131.03;61.95;;;;;;;-4.64;79.14;101086.72;1793746;80;25432;-62
2024/03/08 06:04:17;;;;;;;140.88;63.68;;;;;;;-4.53;79.27;101082.27;1793799;80;25596;-62
2024/03/08 06:06:45;;;;;;;139.72;65.05;;;;;;;-4.41;79.31;101080.41;1793826;80;27479;-62
2024/03/08 06:09:22;;;;;;;140.77;64.92;;;;;;;-4.29;79.35;101087.31;1793629;80;25428;-62
2024/03/08 06:11:46;;;;;;;137.57;66.92;;;;;;;-4.17;79.63;101081.81;1792633;80;25813;-63
2024/03/08 06:14:12;;;;;;;155.00;71.67;;;;;;;-4.04;79.73;101091.16;1793827;80;25858;-64
2024/03/08 06:16:39;;;;;;;161.52;75.62;;;;;;;-3.90;80.01;101084.13;1792723;80;25559;-62
2024/03/08 06:19:05;;;;;;;169.35;78.90;;;;;;;-3.74;80.38;101096.77;1792990;80;27321;-62
2024/03/08 06:21:33;;;;;;;170.72;83.05;;;;;;;-3.57;80.99;101090.14;1793064;80;25684;-62
2024/03/08 06:23:59;;;;;;;186.67;85.62;;;;;;;-3.35;81.73;101090.02;1793170;80;25721;-62
2024/03/08 06:26:28;;;;;;;193.82;89.07;;;;;;;-3.13;81.83;101093.36;1793088;80;25982;-62
2024/03/08 06:28:58;;;;;;;186.70;90.90;;;;;;;-2.92;81.93;101090.58;1793105;80;25600;-61
2024/03/08 06:31:26;;;;;;;206.97;96.45;;;;;;;-2.70;81.67;101089.11;1793630;80;28232;-62
2024/03/08 06:33:54;;;;;;;193.60;94.25;;;;;;;-2.50;81.83;101092.59;1793654;80;25512;-61
2024/03/08 06:36:23;;;;;;;205.65;97.80;;;;;;;-2.25;82.40;101094.63;1794060;80;25528;-62
2024/03/08 06:38:54;;;;;;;207.92;97.60;;;;;;;-1.95;82.48;101093.70;1793810;80;26718;-62
2024/03/08 06:41:21;;;;;;;202.53;98.65;;;;;;;-1.65;82.93;101095.07;1794100;80;25381;-61
2024/03/08 06:43:51;;;;;;;206.13;100.55;;;;;;;-1.35;83.09;101097.52;1793851;80;27168;-61
2024/03/08 06:46:20;;;;;;;203.98;96.82;;;;;;;-1.03;83.14;101098.13;1793096;80;25586;-63
2024/03/08 06:48:46;;;;;;;;;;;;;;;-0.68;83.14;101101.69;1796552;80;25588;-63
2024/03/08 06:51:16;;;;;;;191.20;90.07;;;;;;;-0.33;83.06;101095.95;1793985;80;25764;-62
2024/03/08 06:53:43;;;;;;;202.13;96.90;;;;;;;0.05;83.89;101095.83;1794066;80;25604;-62
2024/03/08 06:56:11;;;;;;;182.12;92.37;;;;;;;0.46;83.89;101094.87;1793913;80;27332;-63
2024/03/08 06:58:38;;;;;;;195.32;93.17;;;;;;;0.88;83.48;101099.00;1793831;80;25471;-63
2024/03/08 07:01:07;;;;;;;182.27;90.95;;;;;;;1.27;82.69;101083.52;1793951;80;25556;-63
2024/03/08 07:03:35;;;;;;;185.88;91.20;;;;;;;1.70;82.09;101085.10;1794018;80;31035;-63
2024/03/08 07:06:02;;;;;;;171.35;91.17;;;;;;;2.11;81.35;101086.58;1793541;80;25597;-63
2024/03/08 07:08:29;;;;;;;177.60;88.78;;;;;;;2.53;80.63;101091.22;1793847;80;27307;-63
2024/03/08 07:10:58;;;;;;;180.65;88.95;;;;;;;2.92;79.75;101092.80;1793833;80;25393;-63
2024/03/08 07:13:28;;;;;;;161.77;85.10;;;;;;;3.31;79.03;101085.48;1793844;80;25544;-63
2024/03/08 07:15:55;;;;;;;156.43;82.60;;;;;;;3.72;77.64;101089.64;1793791;80;25453;-63
2024/03/08 07:18:22;;;;;;;158.50;87.17;;;;;;;4.11;77.07;101087.55;1793875;80;25385;-63
2024/03/08 07:20:49;;;;;;;157.52;84.35;;;;;;;4.51;76.09;101087.81;1793856;80;27317;-63
2024/03/08 07:23:46;;;;;;;160.25;86.32;;;;;;;4.92;75.60;101081.62;1793772;80;25458;-65
2024/03/08 07:25:50;;;;;;;136.95;70.05;;;;;;;5.30;74.08;101081.72;1790217;80;25493;-64
2024/03/08 07:28:16;;;;;;;126.38;66.25;;;;;;;5.66;72.88;101087.40;1793819;80;25863;-64
2024/03/08 07:33:13;;;;;;;119.28;65.40;;;;;;;6.25;70.28;101083.77;1793633;80;27264;-64
2024/03/08 07:35:44;;;;;;;111.50;61.50;;;;;;;6.72;70.06;101083.75;1793217;80;25380;-64
2024/03/08 07:38:11;;;;;;;123.18;65.92;;;;;;;7.19;69.22;101082.52;1793430;80;25472;-64
2024/03/08 07:40:44;;;;;;;114.28;60.67;;;;;;;7.63;67.91;101086.86;1793247;80;26000;-65
2024/03/08 07:43:12;;;;;;;108.10;54.33;;;;;;;8.04;66.67;101084.13;1793292;80;25584;-65
2024/03/08 07:45:42;;;;;;;103.25;55.08;;;;;;;8.26;63.70;101078.96;1793345;80;27407;-65
2024/03/08 07:48:13;;;;;;;79.42;43.55;;;;;;;8.72;64.26;101075.32;1793031;80;25673;-65
2024/03/08 07:50:43;;;;;;;81.20;42.00;;;;;;;9.60;62.81;101080.94;1793300;80;25440;-65
2024/03/08 07:53:10;;;;;;;74.90;39.83;;;;;;;10.56;60.61;101075.67;1793249;80;25904;-64
2024/03/08 07:55:39;;;;;;;81.02;41.20;;;;;;;11.46;58.36;101077.12;1764331;80;25616;-64
2024/03/08 07:58:07;;;;;;;72.58;38.38;;;;;;;12.19;56.35;101080.22;1793235;80;27339;-65
2024/03/08 08:00:36;;;;;;;66.87;37.93;;;;;;;12.90;54.57;101075.77;1793336;80;25390;-65
2024/03/08 08:03:08;;;;;;;68.15;38.02;;;;;;;13.57;53.23;101069.62;1793324;80;25576;-65
2024/03/08 08:05:35;;;;;;;68.78;39.85;;;;;;;14.18;51.66;101069.95;1793241;80;26405;-65
2024/03/08 08:08:07;;;;;;;61.75;37.90;;;;;;;14.81;50.56;101069.80;1793338;80;25423;-65
2024/03/08 08:10:34;;;;;;;65.10;35.80;;;;;;;15.38;49.04;101065.34;1793253;80;27330;-65
2024/03/08 08:13:04;;;;;;;59.83;34.58;;;;;;;15.84;47.22;101077.46;1793176;80;25511;-65
2024/03/08 08:15:35;;;;;;;63.80;35.80;;;;;;;16.16;46.26;101076.64;1793215;80;25554;-66
2024/03/08 08:18:05;;;;;;;63.23;35.85;;;;;;;16.46;45.39;101079.38;1793241;80;25675;-65
2024/03/08 08:20:31;;;;;;;53.75;31.93;;;;;;;16.63;44.79;101072.44;1793318;80;25609;-65
2024/03/08 08:22:58;;;;;;;44.60;26.27;;;;;;;16.63;43.86;101069.70;1793192;80;27915;-65
2024/03/08 08:25:26;;;;;;;45.40;26.50;;;;;;;16.47;42.13;101075.52;1793134;80;25629;-65
2024/03/08 08:27:53;;;;;;;48.80;31.12;;;;;;;16.10;40.94;101066.45;1793242;80;25483;-66
2024/03/08 08:30:20;;;;;;;45.73;26.60;;;;;;;15.92;40.81;101063.54;1793498;80;25546;-66
2024/03/08 08:32:51;;;;;;;41.77;25.62;;;;;;;15.98;41.32;101064.97;1792978;79;25389;-65
2024/03/08 08:35:19;;;;;;;40.15;21.42;;;;;;;16.40;41.28;101071.37;1781098;80;29001;-64
2024/03/08 08:37:46;;;;;;;35.20;20.77;;;;;;;17.01;40.84;101059.83;1781129;80;25596;-64
2024/03/08 08:40:17;;;;;;;28.65;18.98;;;;;;;17.66;40.11;101061.58;1781272;80;25614;-64
2024/03/08 08:42:48;;;;;;;31.80;20.52;;;;;;;18.29;39.02;101049.80;1781381;80;25632;-64
2024/03/08 08:45:17;;;;;;;29.20;17.27;;;;;;;18.92;38.26;101055.44;1781301;80;25447;-64
2024/03/08 08:47:46;;;;;;;21.35;13.10;;;;;;;19.48;37.51;101049.71;1781477;80;27268;-64
2024/03/08 08:50:22;;;;;;;18.42;11.88;;;;;;;19.96;36.14;101053.34;1781167;80;25385;-64
2024/03/08 08:52:46;;;;;;;24.27;14.63;;;;;;;20.34;35.07;101052.67;1779820;80;25475;-63
2024/03/08 08:55:14;;;;;;;25.27;16.23;;;;;;;20.56;34.54;101046.89;1762466;81;25535;-64
2024/03/08 08:57:42;;;;;;;20.50;14.03;;;;;;;20.89;34.34;101047.25;1762547;81;25438;-64
2024/03/08 09:00:15;;;;;;;25.32;16.57;;;;;;;21.30;33.06;101043.31;1781197;80;28255;-63
2024/03/08 09:02:44;;;;;;;23.85;16.80;;;;;;;21.56;32.59;101035.78;1762382;81;25308;-64
2024/03/08 09:05:16;;;;;;;21.62;16.87;;;;;;;21.83;32.16;101040.19;1781303;80;25459;-64
2024/03/08 09:07:47;;;;;;;25.45;16.90;;;;;;;22.24;31.50;101036.90;1762337;81;26853;-64
2024/03/08 09:10:15;;;;;;;27.02;19.05;;;;;;;22.73;31.30;101036.04;1781171;80;25611;-64
2024/03/08 09:12:43;;;;;;;24.02;17.12;;;;;;;23.16;30.66;101037.17;1762633;81;27227;-64
2024/03/08 09:15:13;;;;;;;28.40;18.55;;;;;;;23.47;30.24;101040.65;1762310;81;25547;-65
2024/03/08 09:17:44;;;;;;;26.10;18.10;;;;;;;23.75;29.63;101038.75;1734276;80;25388;-65
2024/03/08 09:20:14;;;;;;;29.10;20.97;;;;;;;24.07;29.20;101041.59;1762359;81;25978;-64
2024/03/08 09:22:46;;;;;;;100.72;89.37;;;;;;;23.88;27.69;101032.36;1761616;81;25462;-63
2024/03/08 09:25:13;;;;;;;17.67;14.40;;;;;;;23.99;28.13;101026.34;1759510;81;27206;-63
2024/03/08 09:27:41;;;;;;;20.97;15.32;;;;;;;24.06;27.82;101025.61;1731795;82;25473;-63
2024/03/08 09:30:13;;;;;;;18.00;13.60;;;;;;;23.85;27.62;101021.50;1750302;82;25310;-63
2024/03/08 09:32:41;;;;;;;22.45;14.83;;;;;;;23.41;27.89;101018.12;1732153;82;26135;-63
2024/03/08 09:35:11;;;;;;;20.77;13.65;;;;;;;22.91;27.34;101019.70;1730669;82;25395;-63
2024/03/08 09:37:38;;;;;;;20.88;14.38;;;;;;;22.40;27.47;101018.84;1730638;82;27565;-63
2024/03/08 09:40:09;;;;;;;20.08;15.85;;;;;;;22.16;27.96;101011.78;1729119;83;25556;-62
2024/03/08 09:42:40;;;;;;;23.40;15.53;;;;;;;22.15;28.36;101004.67;1730440;82;25613;-62
2024/03/08 09:45:13;;;;;;;20.72;15.72;;;;;;;22.01;27.57;101012.13;1730533;82;26207;-62
2024/03/08 09:47:45;;;;;;;21.17;14.95;;;;;;;22.01;28.25;101007.44;1730617;82;25455;-62
2024/03/08 09:50:14;;;;;;;21.68;15.30;;;;;;;22.16;28.12;101003.52;1730449;82;27531;-62
2024/03/08 09:52:45;;;;;;;;;;;;;;;22.28;28.42;101009.42;1733044;82;25522;-62
2024/03/08 09:55:13;;;;;;;19.12;13.58;;;;;;;22.33;27.19;101008.52;1730616;82;25470;-63
2024/03/08 10:00:30;;;;;;;19.20;13.95;;;;;;;21.99;26.82;100999.32;1730635;82;25553;-66
2024/03/08 10:03:03;;;;;;;;;;;;;;;22.08;27.30;100997.68;1733194;82;27213;-64
2024/03/08 10:05:36;;;;;;;76.70;65.85;;;;;;;22.34;26.95;100994.95;1730519;82;25317;-65
2024/03/08 10:08:06;;;;;;;;;;;;;;;22.64;26.62;100997.50;1732977;82;25395;-67
2024/03/08 10:10:38;;;;;;;21.17;14.98;;;;;;;22.51;25.96;100992.23;1730501;82;26268;-69
2024/03/08 10:13:12;;;;;;;19.82;14.83;;;;;;;22.33;26.11;100990.59;1730546;82;25422;-69
2024/03/08 10:15:43;;;;;;;20.48;15.58;;;;;;;22.35;26.17;100988.85;1730596;82;27604;-69
2024/03/08 10:18:10;;;;;;;21.60;14.43;;;;;;;22.19;26.15;100987.03;1730464;82;26016;-67
2024/03/08 10:20:37;;;;;;;21.45;15.32;;;;;;;22.00;26.08;100987.94;1730466;82;25684;-69
2024/03/08 10:23:08;;;;;;;23.38;15.13;;;;;;;22.25;26.72;100984.74;1730473;82;25616;-68
2024/03/08 10:25:37;;;;;;;21.77;15.40;;;;;;;22.42;26.47;100977.13;1705672;82;25131;-69
2024/03/08 10:28:06;;;;;;;;;;;;;;;22.38;26.03;100974.33;1733217;82;28070;-67
2024/03/08 10:30:33;;;;;;;22.27;14.55;;;;;;;22.35;25.61;100979.99;1730528;82;25437;-67
2024/03/08 10:33:05;;;;;;;22.93;13.10;;;;;;;22.37;26.11;100981.00;1730612;82;25536;-68
2024/03/08 10:35:31;;;;;;;22.07;14.60;;;;;;;22.39;25.81;100982.83;1735012;82;25725;-68
2024/03/08 10:38:05;;;;;;;19.75;13.13;;;;;;;22.35;25.47;100979.20;1735726;82;25404;-69
2024/03/08 10:40:32;;;;;;;21.50;12.88;;;;;;;22.40;25.59;100976.72;1735678;82;27372;-66
2024/03/08 10:43:01;;;;;;;19.35;13.83;;;;;;;22.46;25.49;100973.83;1735766;82;25522;-67
2024/03/08 10:45:37;;;;;;;22.42;12.18;;;;;;;22.33;25.06;100976.03;1735656;82;25542;-65
2024/03/08 10:48:37;;;;;;;100.70;86.02;;;;;;;22.19;24.50;100969.72;1735715;82;26207;-64
2024/03/08 10:51:07;;;;;;;37.40;27.67;;;;;;;22.78;24.58;100969.30;1735742;82;25368;-65
2024/03/08 10:53:42;;;;;;;17.42;12.07;;;;;;;23.74;23.95;100963.97;1735699;82;28201;-67
2024/03/08 10:56:14;;;;;;;17.27;12.07;;;;;;;24.29;23.55;100964.54;1735645;82;25498;-68
2024/03/08 10:58:45;;;;;;;18.62;11.95;;;;;;;24.16;23.47;100961.89;1735691;82;25509;-67
2024/03/08 11:01:12;;;;;;;20.05;11.95;;;;;;;23.92;23.30;100962.73;1735667;82;25625;-66
2024/03/08 11:03:53;;;;;;;19.55;12.00;;;;;;;23.61;22.92;100954.39;1735725;82;25564;-65
2024/03/08 11:06:40;;;;;;;14.58;10.85;;;;;;;23.33;23.31;100953.55;1735771;82;27825;-53
2024/03/08 11:09:33;;;;;;;17.00;11.40;;;;;;;23.38;23.27;100958.72;1730930;82;25583;-52
2024/03/08 11:12:34;;;;;;;14.78;9.95;;;;;;;23.76;22.70;100951.16;1735641;82;25412;-54
2024/03/08 11:15:19;;;;;;;22.67;11.80;;;;;;;24.14;22.11;100949.84;1735696;82;26180;-54
2024/03/08 11:17:55;;;;;;;15.50;10.90;;;;;;;24.30;22.15;100948.17;1735772;82;25529;-56
2024/03/08 11:20:21;;;;;;;14.35;11.03;;;;;;;24.71;22.18;100947.19;1735505;82;27950;-56